Canandaigua, New York
Current Conditions -  °F | °C
As of 4:01 AM on Friday 19 Dec 2014 (Local Time) from KPEO Reporting Station
Overcast Overcast  
Wind Chill: 17°   Ceiling: 1500
Heat Index: 27°   Visibility: 9mi
Dew Point: 22°   Wind: 12mph
Humidity: 81%   Direction: 300°WNW
Pressure: 30.04"   Gusts: 18mph
Location:  42.89°N, 77.28°W
Report Text: KPEO 190901Z AUTO 30010G16KT 9SM OVC015 M03/M06 A3004 RMK AO2 SNE0857 P0000 T10281056
Loading
Personal Weather Stations






























Interactive Weather Map New forecast layout! Learn more

10-Day Weather Forecast

Advertisements
Track Severe Weather on mobile